createdAt,value
2022-09-01T00:00:01.408Z,102100.78
2022-09-01T00:02:09.828Z,102099.06
2022-09-01T00:04:16.355Z,102090.22
2022-09-01T00:06:22.941Z,102087.53
2022-09-01T00:08:27.211Z,102086.69
2022-09-01T00:10:31.093Z,102081.38
2022-09-01T00:12:35.101Z,102084.97
2022-09-01T00:14:42.251Z,102078.78
2022-09-01T00:16:45.889Z,102078.78
2022-09-01T00:18:55.978Z,102082.22
2022-09-01T00:21:00.602Z,102078.59
2022-09-01T00:23:04.385Z,102074.00
2022-09-01T00:25:09.387Z,102076.50
2022-09-01T00:27:13.085Z,102073.66
2022-09-01T00:29:17.639Z,102072.50
2022-09-01T00:31:23.854Z,102070.56
2022-09-01T00:33:27.446Z,102059.91
2022-09-01T00:35:31.230Z,102061.63
2022-09-01T00:37:40.900Z,102061.63
2022-09-01T00:39:44.814Z,102058.97
2022-09-01T00:41:50.568Z,102061.63
2022-09-01T00:43:56.678Z,102068.69
2022-09-01T00:46:00.368Z,102065.81
2022-09-01T00:48:06.683Z,102063.97
2022-09-01T00:50:12.917Z,102074.44
2022-09-01T00:52:22.299Z,102061.09
2022-09-01T00:54:29.533Z,102064.50
2022-09-01T00:56:35.797Z,102052.88
2022-09-01T00:58:40.152Z,102051.94
2022-09-01T01:00:48.738Z,102051.94
2022-09-01T01:02:56.053Z,102054.50
2022-09-01T01:05:03.140Z,102050.09
2022-09-01T01:07:09.249Z,102045.66
2022-09-01T01:09:13.187Z,102046.50
2022-09-01T01:11:18.896Z,102043.72
2022-09-01T01:13:24.417Z,102040.94
2022-09-01T01:15:28.163Z,102036.38
2022-09-01T01:17:31.841Z,102041.63
2022-09-01T01:19:59.532Z,102035.34
2022-09-01T01:22:23.694Z,102032.78
2022-09-01T01:24:30.659Z,102028.47
2022-09-01T01:26:35.029Z,102027.59
2022-09-01T01:28:41.527Z,102019.59
2022-09-01T01:30:51.388Z,102023.13
2022-09-01T01:32:55.612Z,102020.38
2022-09-01T01:34:59.382Z,102017.59
2022-09-01T01:37:03.286Z,102016.75
2022-09-01T01:39:10.434Z,102005.19
2022-09-01T01:41:18.277Z,102007.03
2022-09-01T01:43:22.003Z,102009.69
2022-09-01T01:45:26.622Z,101999.84
2022-09-01T01:47:30.030Z,102000.81
2022-09-01T01:49:33.792Z,101999.84
2022-09-01T01:51:37.327Z,101999.84
2022-09-01T01:53:41.308Z,102001.78
2022-09-01T01:55:45.052Z,101995.56
2022-09-01T01:57:53.884Z,101993.00
2022-09-01T01:59:58.284Z,101996.63
2022-09-01T02:02:09.861Z,101994.06
2022-09-01T02:04:15.429Z,101996.81
2022-09-01T02:06:24.736Z,101999.59
2022-09-01T02:08:30.920Z,102002.38
2022-09-01T02:10:37.948Z,102002.38
2022-09-01T02:12:42.070Z,102001.53
2022-09-01T02:14:48.490Z,102000.53
2022-09-01T02:16:56.304Z,102000.66
2022-09-01T02:19:00.784Z,102000.66
2022-09-01T02:21:16.409Z,102002.38
2022-09-01T02:23:24.808Z,101995.22
2022-09-01T02:25:29.946Z,101996.09
2022-09-01T02:27:36.976Z,101998.75
2022-09-01T02:29:43.485Z,101990.84
2022-09-01T02:31:52.195Z,101992.53
2022-09-01T02:33:55.884Z,101994.38
2022-09-01T02:36:02.486Z,101988.06
2022-09-01T02:38:07.181Z,101989.88
2022-09-01T02:40:11.749Z,101989.75
2022-09-01T02:42:16.523Z,101988.06
2022-09-01T02:44:22.251Z,101989.88
2022-09-01T02:46:26.368Z,101991.69
2022-09-01T02:48:36.124Z,101992.53
2022-09-01T02:50:42.449Z,101990.84
2022-09-01T02:52:48.846Z,101990.75
2022-09-01T02:54:52.346Z,101989.75
2022-09-01T02:56:56.008Z,101992.44
2022-09-01T02:59:01.849Z,101992.44
2022-09-01T03:01:06.594Z,101991.50
2022-09-01T03:03:11.971Z,101982.53
2022-09-01T03:05:19.578Z,101988.72
2022-09-01T03:07:24.301Z,101989.50
2022-09-01T03:09:29.155Z,101986.72
2022-09-01T03:11:35.201Z,101982.31
2022-09-01T03:13:40.739Z,101981.38
2022-09-01T03:15:45.478Z,101981.28
2022-09-01T03:17:49.902Z,101975.94
2022-09-01T03:19:54.970Z,101969.75
2022-09-01T03:22:00.415Z,101977.75
2022-09-01T03:24:09.370Z,101973.38
2022-09-01T03:26:13.107Z,101974.22
2022-09-01T03:28:17.458Z,101967.25
2022-09-01T03:30:21.960Z,101972.53
2022-09-01T03:32:25.757Z,101964.69
2022-09-01T03:34:29.459Z,101968.34
2022-09-01T03:36:34.663Z,101968.41
2022-09-01T03:38:39.768Z,101971.09
2022-09-01T03:40:43.859Z,101969.41
2022-09-01T03:42:47.797Z,101960.50
2022-09-01T03:44:52.190Z,101964.22
2022-09-01T03:46:58.572Z,101966.34
2022-09-01T03:49:05.775Z,101964.81
2022-09-01T03:51:09.923Z,101959.66
2022-09-01T03:53:15.288Z,101958.91
2022-09-01T03:55:24.931Z,101959.75
2022-09-01T03:57:32.581Z,101958.91
2022-09-01T03:59:36.676Z,101956.34
2022-09-01T04:01:41.812Z,101953.00
2022-09-01T04:03:49.324Z,101957.59
2022-09-01T04:05:57.499Z,101954.94
2022-09-01T04:08:04.105Z,101955.88
2022-09-01T04:10:11.831Z,101954.16
2022-09-01T04:12:17.385Z,101942.63
2022-09-01T04:14:27.795Z,101939.88
2022-09-01T04:16:53.335Z,101942.63
2022-09-01T04:18:57.187Z,101941.03
2022-09-01T04:21:01.438Z,101941.13
2022-09-01T04:23:11.119Z,101945.56
2022-09-01T04:25:16.235Z,101935.78
2022-09-01T04:27:23.287Z,101937.69
2022-09-01T04:29:28.584Z,101933.22
2022-09-01T04:31:33.437Z,101925.22
2022-09-01T04:33:39.107Z,101931.50
2022-09-01T04:35:44.687Z,101927.22
2022-09-01T04:37:48.957Z,101929.03
2022-09-01T04:39:56.651Z,101932.66
2022-09-01T04:42:05.003Z,101922.94
2022-09-01T04:44:11.235Z,101933.59
2022-09-01T04:46:17.480Z,101931.03
2022-09-01T04:48:22.450Z,101934.63
2022-09-01T04:50:27.696Z,101934.75
2022-09-01T04:53:07.416Z,101925.03
2022-09-01T04:55:25.005Z,101926.94
2022-09-01T04:57:29.434Z,101929.63
2022-09-01T04:59:36.060Z,101924.28
2022-09-01T05:01:45.449Z,101932.28
2022-09-01T05:03:57.605Z,101936.84
2022-09-01T05:06:15.827Z,101935.13
2022-09-01T05:08:25.046Z,101938.66
2022-09-01T05:10:34.920Z,101929.78
2022-09-01T05:12:52.594Z,101929.88
2022-09-01T05:14:58.283Z,101931.59
2022-09-01T05:17:04.138Z,101933.44
2022-09-01T05:19:10.612Z,101934.38
2022-09-01T05:21:16.990Z,101933.53
2022-09-01T05:23:21.626Z,101938.88
2022-09-01T05:25:26.366Z,101937.97
2022-09-01T05:27:31.296Z,101945.97
2022-09-01T05:29:38.531Z,101938.75
2022-09-01T05:31:49.528Z,101936.94
2022-09-01T05:33:54.485Z,101936.00
2022-09-01T05:36:02.172Z,101940.38
2022-09-01T05:38:09.190Z,101937.63
2022-09-01T05:40:16.602Z,101938.34
2022-09-01T05:42:22.233Z,101940.84
2022-09-01T05:44:25.671Z,101946.81
2022-09-01T05:46:31.804Z,101942.38
2022-09-01T05:48:40.446Z,101933.28
2022-09-01T05:50:45.644Z,101943.78
2022-09-01T05:52:51.313Z,101941.13
2022-09-01T05:54:56.859Z,101940.25
2022-09-01T05:57:23.227Z,101940.06
2022-09-01T05:59:27.991Z,101945.19
2022-09-01T06:01:40.293Z,101941.59
2022-09-01T06:03:46.141Z,101940.44
2022-09-01T06:05:55.523Z,101947.38
2022-09-01T06:08:01.018Z,101938.41
2022-09-01T06:10:05.689Z,101936.50
2022-09-01T06:12:18.486Z,101939.91
2022-09-01T06:14:22.896Z,101939.75
2022-09-01T06:16:28.926Z,101934.09
2022-09-01T06:18:34.775Z,101939.16
2022-09-01T06:20:43.203Z,101936.22
2022-09-01T06:22:47.906Z,101934.06
2022-09-01T06:24:58.219Z,101941.69
2022-09-01T06:27:10.215Z,101935.09
2022-09-01T06:29:15.655Z,101938.22
2022-09-01T06:31:28.777Z,101936.66
2022-09-01T06:33:32.734Z,101936.78
2022-09-01T06:35:37.488Z,101943.19
2022-09-01T06:37:44.190Z,101946.22
2022-09-01T06:39:53.221Z,101942.19
2022-09-01T06:41:58.462Z,101941.97
2022-09-01T06:44:14.459Z,101944.63
2022-09-01T06:46:28.106Z,101946.34
2022-09-01T06:48:34.798Z,101949.13
2022-09-01T06:55:38.031Z,101948.13
2022-09-01T07:00:18.737Z,101934.41
2022-09-01T07:02:26.858Z,101944.25
2022-09-01T07:05:08.088Z,101938.34
2022-09-01T07:10:23.376Z,101941.44
2022-09-01T07:12:36.468Z,101947.41
2022-09-01T07:19:48.364Z,101941.13
2022-09-01T07:22:07.044Z,101948.88
2022-09-01T07:24:13.703Z,101947.69
2022-09-01T07:26:46.825Z,101953.38
2022-09-01T07:33:54.162Z,101951.59
2022-09-01T07:42:30.582Z,101944.91
2022-09-01T07:43:52.648Z,101950.03
2022-09-01T07:46:40.348Z,101948.41
2022-09-01T07:49:29.645Z,101949.19
2022-09-01T07:51:38.594Z,101949.38
2022-09-01T07:53:44.997Z,101950.25
2022-09-01T07:55:51.352Z,101940.19
2022-09-01T07:57:55.189Z,101947.56
2022-09-01T08:00:00.998Z,101944.25
2022-09-01T08:02:18.836Z,101941.69
2022-09-01T08:04:26.860Z,101950.75
2022-09-01T08:06:41.000Z,101948.06
2022-09-01T08:08:45.732Z,101948.75
2022-09-01T08:10:49.772Z,101945.09
2022-09-01T08:12:56.584Z,101954.25
2022-09-01T08:17:51.183Z,101955.97
2022-09-01T08:19:52.819Z,101952.25
2022-09-01T08:22:28.825Z,101953.03
2022-09-01T08:24:40.690Z,101947.69
2022-09-01T08:26:44.748Z,101954.94
2022-09-01T08:28:55.080Z,101943.19
2022-09-01T08:31:12.018Z,101951.53
2022-09-01T08:33:17.073Z,101939.56
2022-09-01T08:35:22.955Z,101946.22
2022-09-01T08:37:27.180Z,101941.75
2022-09-01T08:39:31.036Z,101947.63
2022-09-01T08:41:47.173Z,101944.44
2022-09-01T08:44:04.511Z,101950.44
2022-09-01T08:46:15.542Z,101943.63
2022-09-01T08:49:09.727Z,101937.09
2022-09-01T08:50:53.166Z,101941.59
2022-09-01T08:53:20.587Z,101938.50
2022-09-01T08:55:29.891Z,101935.81
2022-09-01T08:57:35.762Z,101935.81
2022-09-01T08:59:59.097Z,101933.88
2022-09-01T09:02:28.116Z,101933.34
2022-09-01T09:04:49.379Z,101929.38
2022-09-01T09:07:00.774Z,101930.44
2022-09-01T09:09:07.621Z,101934.38
2022-09-01T09:11:24.231Z,101934.69
2022-09-01T09:13:40.107Z,101930.59
2022-09-01T09:15:48.306Z,101933.56
2022-09-01T09:18:00.299Z,101925.75
2022-09-01T09:20:06.306Z,101925.84
2022-09-01T09:22:12.721Z,101920.28
2022-09-01T09:24:25.871Z,101916.19
2022-09-01T09:26:47.818Z,101922.06
2022-09-01T09:28:51.823Z,101914.22
2022-09-01T09:31:28.791Z,101912.59
2022-09-01T09:33:52.093Z,101911.84
2022-09-01T09:35:57.928Z,101907.00
2022-09-01T09:38:24.179Z,101903.88
2022-09-01T09:40:28.532Z,101907.91
2022-09-01T09:42:36.444Z,101895.91
2022-09-01T09:44:48.238Z,101905.13
2022-09-01T09:46:52.709Z,101900.72
2022-09-01T09:49:13.554Z,101903.84
2022-09-01T09:51:21.170Z,101903.72
2022-09-01T09:53:30.107Z,101902.75
2022-09-01T09:55:33.798Z,101896.94
2022-09-01T09:57:42.158Z,101896.41
2022-09-01T10:00:04.324Z,101896.56
2022-09-01T10:02:28.454Z,101902.91
2022-09-01T10:04:40.091Z,101899.47
2022-09-01T10:06:47.030Z,101890.53
2022-09-01T10:08:50.789Z,101888.69
2022-09-01T10:10:58.402Z,101885.88
2022-09-01T10:13:03.536Z,101892.50
2022-09-01T10:15:14.147Z,101882.38
2022-09-01T10:17:20.935Z,101880.91
2022-09-01T10:19:25.493Z,101885.75
2022-09-01T10:21:35.015Z,101888.31
2022-09-01T10:23:41.479Z,101892.97
2022-09-01T10:25:47.801Z,101889.19
2022-09-01T10:27:58.353Z,101885.75
2022-09-01T10:30:12.687Z,101879.88
2022-09-01T10:32:34.977Z,101894.09
2022-09-01T10:34:42.368Z,101888.63
2022-09-01T10:36:55.010Z,101887.69
2022-09-01T10:39:05.358Z,101874.31
2022-09-01T10:41:35.741Z,101872.34
2022-09-01T10:43:42.856Z,101882.09
2022-09-01T10:45:51.922Z,101875.88
2022-09-01T10:48:32.061Z,101871.19
2022-09-01T10:50:36.949Z,101871.78
2022-09-01T10:53:16.977Z,101865.97
2022-09-01T10:55:24.919Z,101858.56
2022-09-01T10:57:52.466Z,101865.97
2022-09-01T10:59:58.589Z,101866.31
2022-09-01T11:02:28.387Z,101860.94
2022-09-01T11:05:06.314Z,101861.31
2022-09-01T11:07:50.472Z,101854.28
2022-09-01T11:10:38.331Z,101860.69
2022-09-01T11:12:59.249Z,101857.06
2022-09-01T11:15:07.030Z,101853.88
2022-09-01T11:17:19.125Z,101851.69
2022-09-01T11:19:39.845Z,101845.00
2022-09-01T11:21:44.435Z,101846.81
2022-09-01T11:23:48.399Z,101847.09
2022-09-01T11:28:43.028Z,101846.13
2022-09-01T11:30:55.472Z,101847.09
2022-09-01T11:33:09.459Z,101841.84
2022-09-01T11:35:19.377Z,101833.44
2022-09-01T11:37:27.537Z,101835.28
2022-09-01T11:39:39.627Z,101837.84
2022-09-01T11:41:57.559Z,101847.44
2022-09-01T11:44:13.099Z,101852.22
2022-09-01T11:46:20.573Z,101849.53
2022-09-01T11:48:26.810Z,101839.75
2022-09-01T11:50:33.110Z,101832.44
2022-09-01T11:52:38.194Z,101839.88
2022-09-01T11:54:44.124Z,101833.66
2022-09-01T11:56:49.213Z,101849.13
2022-09-01T11:58:53.545Z,101849.97
2022-09-01T12:01:00.039Z,101842.44
2022-09-01T12:03:03.935Z,101839.03
2022-09-01T12:05:28.414Z,101839.28
2022-09-01T12:07:40.356Z,101840.50
2022-09-01T12:09:47.280Z,101835.50
2022-09-01T12:11:53.144Z,101833.44
2022-09-01T12:14:02.990Z,101838.28
2022-09-01T12:16:19.141Z,101824.31
2022-09-01T12:18:27.095Z,101830.38
2022-09-01T12:20:33.404Z,101832.22
2022-09-01T12:22:37.052Z,101827.13
2022-09-01T12:24:40.657Z,101829.53
2022-09-01T12:26:45.089Z,101827.09
2022-09-01T12:28:50.485Z,101823.94
2022-09-01T12:30:55.799Z,101826.50
2022-09-01T12:35:27.303Z,101826.84
2022-09-01T12:37:31.386Z,101820.53
2022-09-01T12:39:36.826Z,101821.75
2022-09-01T12:41:41.393Z,101809.19
2022-09-01T12:43:45.580Z,101800.78
2022-09-01T12:45:50.740Z,101814.41
2022-09-01T12:47:54.385Z,101811.50
2022-09-01T12:49:57.826Z,101819.78
2022-09-01T12:52:12.086Z,101815.88
2022-09-01T12:54:26.686Z,101808.56
2022-09-01T12:56:33.053Z,101812.00
2022-09-01T12:58:36.619Z,101810.28
2022-09-01T13:00:59.110Z,101797.84
2022-09-01T13:03:13.337Z,101806.50
2022-09-01T13:05:41.678Z,101806.63
2022-09-01T13:07:45.843Z,101805.88
2022-09-01T13:09:49.348Z,101799.44
2022-09-01T13:12:08.432Z,101803.81
2022-09-01T13:14:11.989Z,101800.78
2022-09-01T13:16:17.037Z,101795.91
2022-09-01T13:18:22.118Z,101795.91
2022-09-01T13:20:26.735Z,101800.41
2022-09-01T13:22:30.292Z,101794.44
2022-09-01T13:24:33.711Z,101795.66
2022-09-01T13:26:38.704Z,101797.34
2022-09-01T13:28:42.210Z,101788.34
2022-09-01T13:30:50.345Z,101789.78
2022-09-01T13:33:19.227Z,101777.88
2022-09-01T13:35:24.779Z,101785.41
2022-09-01T13:37:28.960Z,101787.13
2022-09-01T13:39:32.726Z,101779.78
2022-09-01T13:41:36.248Z,101784.06
2022-09-01T13:43:39.837Z,101774.31
2022-09-01T13:45:45.345Z,101787.13
2022-09-01T13:50:23.267Z,101774.81
2022-09-01T13:52:27.216Z,101780.28
2022-09-01T13:54:30.830Z,101771.38
2022-09-01T13:56:35.422Z,101770.16
2022-09-01T13:58:39.122Z,101758.00
2022-09-01T14:00:45.599Z,101766.16
2022-09-01T14:02:52.135Z,101757.84
2022-09-01T14:04:55.928Z,101762.97
2022-09-01T14:07:00.950Z,101749.06
2022-09-01T14:09:05.833Z,101753.66
2022-09-01T14:11:09.740Z,101750.88
2022-09-01T14:13:14.362Z,101747.41
2022-09-01T14:15:23.728Z,101744.84
2022-09-01T14:17:30.062Z,101738.03
2022-09-01T14:19:34.231Z,101732.81
2022-09-01T14:21:37.963Z,101738.88
2022-09-01T14:23:43.322Z,101741.94
2022-09-01T14:25:49.142Z,101734.16
2022-09-01T14:27:53.688Z,101737.06
2022-09-01T14:29:57.589Z,101728.66
2022-09-01T14:32:01.237Z,101724.03
2022-09-01T14:34:05.402Z,101730.97
2022-09-01T14:36:14.899Z,101729.66
2022-09-01T14:38:18.994Z,101727.06
2022-09-01T14:40:26.123Z,101728.19
2022-09-01T14:42:31.889Z,101722.56
2022-09-01T14:44:38.003Z,101713.94
2022-09-01T14:46:41.730Z,101716.47
2022-09-01T14:48:47.126Z,101720.63
2022-09-01T14:50:51.259Z,101714.06
2022-09-01T14:52:57.303Z,101712.72
2022-09-01T14:55:02.371Z,101709.66
2022-09-01T14:59:31.854Z,101709.91
2022-09-01T15:01:35.787Z,101709.53
2022-09-01T15:03:39.729Z,101708.44
2022-09-01T15:05:43.718Z,101703.31
2022-09-01T15:07:47.804Z,101709.53
2022-09-01T15:09:51.526Z,101709.88
2022-09-01T15:11:55.150Z,101708.94
2022-09-01T15:14:00.198Z,101706.47
2022-09-01T15:16:05.218Z,101710.03
2022-09-01T15:18:09.066Z,101703.56
2022-09-01T15:20:30.274Z,101707.22
2022-09-01T15:22:33.837Z,101695.03
2022-09-01T15:24:38.124Z,101689.81
2022-09-01T15:26:42.195Z,101683.22
2022-09-01T15:28:45.884Z,101680.44
2022-09-01T15:30:51.308Z,101666.41
2022-09-01T15:32:57.991Z,101667.50
2022-09-01T15:35:01.510Z,101659.13
2022-09-01T15:37:05.782Z,101667.53
2022-09-01T15:39:10.706Z,101671.16
2022-09-01T15:41:17.739Z,101669.69
2022-09-01T15:43:21.668Z,101667.34
2022-09-01T15:45:26.372Z,101673.34
2022-09-01T15:47:32.702Z,101667.47
2022-09-01T15:49:37.446Z,101668.44
2022-09-01T15:51:42.943Z,101667.47
2022-09-01T15:53:46.615Z,101664.06
2022-09-01T15:55:50.459Z,101664.16
2022-09-01T15:57:55.582Z,101648.25
2022-09-01T15:59:59.995Z,101653.59
2022-09-01T16:02:06.518Z,101650.19
2022-09-01T16:04:18.615Z,101648.72
2022-09-01T16:06:25.045Z,101647.53
2022-09-01T16:08:28.703Z,101645.69
2022-09-01T16:10:35.090Z,101652.00
2022-09-01T16:12:44.168Z,101646.53
2022-09-01T16:14:48.288Z,101643.75
2022-09-01T16:17:00.213Z,101639.97
2022-09-01T16:19:09.660Z,101640.84
2022-09-01T16:21:23.594Z,101639.00
2022-09-01T16:23:35.744Z,101641.78
2022-09-01T16:25:39.515Z,101637.28
2022-09-01T16:27:46.045Z,101642.63
2022-09-01T16:29:51.814Z,101634.00
2022-09-01T16:31:57.175Z,101636.81
2022-09-01T16:34:03.920Z,101629.63
2022-09-01T16:36:24.989Z,101635.34
2022-09-01T16:38:38.054Z,101628.41
2022-09-01T16:40:48.517Z,101621.22
2022-09-01T16:42:57.925Z,101634.00
2022-09-01T16:45:12.251Z,101620.50
2022-09-01T16:47:42.098Z,101626.81
2022-09-01T16:49:54.635Z,101620.72
2022-09-01T16:52:05.814Z,101614.16
2022-09-01T16:54:21.042Z,101623.06
2022-09-01T16:56:29.693Z,101620.00
2022-09-01T16:58:46.080Z,101624.03
2022-09-01T17:01:00.688Z,101620.38
2022-09-01T17:03:09.404Z,101620.88
2022-09-01T17:05:26.018Z,101616.59
2022-09-01T17:07:39.686Z,101615.03
2022-09-01T17:09:45.235Z,101616.09
2022-09-01T17:11:54.210Z,101616.22
2022-09-01T17:13:59.207Z,101618.66
2022-09-01T17:16:08.221Z,101612.94
2022-09-01T17:18:22.098Z,101610.03
2022-09-01T17:20:31.283Z,101609.03
2022-09-01T17:22:38.283Z,101610.03
2022-09-01T17:24:44.847Z,101609.28
2022-09-01T17:26:51.361Z,101614.16
2022-09-01T17:28:57.649Z,101611.97
2022-09-01T17:31:14.587Z,101610.25
2022-09-01T17:33:26.029Z,101610.25
2022-09-01T17:35:38.743Z,101608.31
2022-09-01T17:37:56.563Z,101610.88
2022-09-01T17:40:07.312Z,101607.13
2022-09-01T17:42:21.793Z,101610.88
2022-09-01T17:44:35.791Z,101605.88
2022-09-01T17:46:45.918Z,101601.84
2022-09-01T17:48:52.951Z,101610.50
2022-09-01T17:51:05.993Z,101603.56
2022-09-01T17:53:23.309Z,101604.19
2022-09-01T17:55:46.431Z,101603.69
2022-09-01T17:57:54.812Z,101599.31
2022-09-01T18:00:07.888Z,101598.72
2022-09-01T18:02:40.019Z,101594.91
2022-09-01T18:04:59.561Z,101593.31
2022-09-01T18:07:10.917Z,101595.91
2022-09-01T18:09:18.487Z,101592.13
2022-09-01T18:11:27.777Z,101599.19
2022-09-01T18:13:52.434Z,101595.28
2022-09-01T18:16:00.497Z,101593.94
2022-09-01T18:18:11.805Z,101591.50
2022-09-01T18:20:25.692Z,101592.09
2022-09-01T18:22:37.438Z,101596.50
2022-09-01T18:24:51.507Z,101591.75
2022-09-01T18:26:55.099Z,101594.06
2022-09-01T18:28:59.396Z,101588.59
2022-09-01T18:31:12.271Z,101591.16
2022-09-01T18:33:27.280Z,101576.94
2022-09-01T18:35:40.336Z,101586.75
2022-09-01T18:37:54.619Z,101578.25
2022-09-01T18:40:12.330Z,101585.28
2022-09-01T18:42:26.566Z,101587.00
2022-09-01T18:44:43.067Z,101578.38
2022-09-01T18:46:56.598Z,101584.56
2022-09-01T18:49:10.906Z,101583.63
2022-09-01T18:51:20.367Z,101578.47
2022-09-01T18:53:33.252Z,101576.78
2022-09-01T18:55:46.981Z,101575.81
2022-09-01T18:57:56.223Z,101576.78
2022-09-01T19:00:16.971Z,101574.47
2022-09-01T19:02:40.219Z,101575.66
2022-09-01T19:04:46.197Z,101577.63
2022-09-01T19:07:00.076Z,101573.25
2022-09-01T19:09:11.913Z,101576.75
2022-09-01T19:11:26.366Z,101569.59
2022-09-01T19:13:43.113Z,101573.13
2022-09-01T19:15:57.469Z,101573.13
2022-09-01T19:18:19.438Z,101575.91
2022-09-01T19:20:29.160Z,101573.25
2022-09-01T19:22:42.164Z,101574.22
2022-09-01T19:24:50.534Z,101572.75
2022-09-01T19:27:00.264Z,101576.50
2022-09-01T19:29:09.500Z,101579.06
2022-09-01T19:31:22.346Z,101580.75
2022-09-01T19:33:33.587Z,101579.81
2022-09-01T19:35:41.743Z,101575.16
2022-09-01T19:37:50.906Z,101577.13
2022-09-01T19:39:54.726Z,101571.91
2022-09-01T19:42:05.093Z,101571.16
2022-09-01T19:44:16.038Z,101571.16
2022-09-01T19:46:26.524Z,101577.59
2022-09-01T19:48:36.725Z,101574.06
2022-09-01T19:50:47.586Z,101574.91
2022-09-01T19:52:57.175Z,101575.91
2022-09-01T19:55:06.375Z,101573.34
2022-09-01T19:57:18.589Z,101575.28
2022-09-01T19:59:29.062Z,101576.13
2022-09-01T20:01:42.043Z,101575.91
2022-09-01T20:03:50.342Z,101576.75
2022-09-01T20:05:59.019Z,101580.16
2022-09-01T20:08:06.984Z,101579.28
2022-09-01T20:10:23.430Z,101575.66
2022-09-01T20:12:38.025Z,101576.28
2022-09-01T20:15:05.435Z,101580.53
2022-09-01T20:17:17.497Z,101578.34
2022-09-01T20:19:30.203Z,101578.13
2022-09-01T20:21:40.280Z,101571.66
2022-09-01T20:23:50.279Z,101575.94
2022-09-01T20:26:01.159Z,101571.19
2022-09-01T20:28:14.083Z,101558.53
2022-09-01T20:30:20.569Z,101576.19
2022-09-01T20:32:36.801Z,101565.47
2022-09-01T20:34:47.702Z,101558.19
2022-09-01T20:36:55.496Z,101557.22
2022-09-01T20:39:22.824Z,101558.91
2022-09-01T20:41:30.392Z,101557.09
2022-09-01T20:43:39.119Z,101555.41
2022-09-01T20:45:42.968Z,101550.16
2022-09-01T20:47:50.735Z,101559.91
2022-09-01T20:49:54.618Z,101556.38
2022-09-01T20:52:04.905Z,101554.66
2022-09-01T20:54:22.324Z,101552.97
2022-09-01T20:56:33.240Z,101548.47
2022-09-01T20:58:43.499Z,101550.41
2022-09-01T21:00:52.262Z,101550.41
2022-09-01T21:03:04.879Z,101545.06
2022-09-01T21:05:25.827Z,101545.06
2022-09-01T21:07:36.829Z,101543.34
2022-09-01T21:09:52.472Z,101538.97
2022-09-01T21:12:01.511Z,101534.59
2022-09-01T21:14:17.684Z,101532.03
2022-09-01T21:16:30.911Z,101536.66
2022-09-01T21:18:43.921Z,101532.53
2022-09-01T21:20:58.239Z,101531.78
2022-09-01T21:23:03.785Z,101528.25
2022-09-01T21:25:11.119Z,101533.63
2022-09-01T21:27:18.992Z,101526.56
2022-09-01T21:29:38.008Z,101524.84
2022-09-01T21:31:41.521Z,101512.47
2022-09-01T21:33:45.184Z,101521.31
2022-09-01T21:35:49.159Z,101516.09
2022-09-01T21:37:53.350Z,101511.84
2022-09-01T21:39:58.626Z,101516.31
2022-09-01T21:42:02.677Z,101509.41
2022-09-01T21:44:06.338Z,101513.91
2022-09-01T21:46:13.885Z,101507.69
2022-09-01T21:48:17.984Z,101511.22
2022-09-01T21:50:24.818Z,101513.19
2022-09-01T21:52:28.609Z,101502.59
2022-09-01T21:54:32.442Z,101507.09
2022-09-01T21:56:36.470Z,101505.38
2022-09-01T21:58:40.632Z,101498.34
2022-09-01T22:00:44.723Z,101499.31
2022-09-01T22:02:49.883Z,101500.28
2022-09-01T22:04:53.599Z,101502.09
2022-09-01T22:06:57.175Z,101494.91
2022-09-01T22:09:02.324Z,101493.22
2022-09-01T22:11:13.605Z,101495.88
2022-09-01T22:13:17.647Z,101498.47
2022-09-01T22:15:23.704Z,101493.97
2022-09-01T22:17:27.460Z,101489.44
2022-09-01T22:19:34.455Z,101491.16
2022-09-01T22:21:38.393Z,101486.66
2022-09-01T22:23:42.251Z,101477.66
2022-09-01T22:25:48.096Z,101471.47
2022-09-01T22:27:51.806Z,101474.03
2022-09-01T22:29:55.346Z,101482.16
2022-09-01T22:32:00.384Z,101468.03
2022-09-01T22:34:04.322Z,101477.06
2022-09-01T22:36:09.841Z,101465.50
2022-09-01T22:38:13.492Z,101466.25
2022-09-01T22:40:17.892Z,101463.56
2022-09-01T22:42:21.809Z,101462.69
2022-09-01T22:44:25.489Z,101462.81
2022-09-01T22:46:30.997Z,101462.09
2022-09-01T22:48:34.600Z,101454.09
2022-09-01T22:50:40.095Z,101452.38
2022-09-01T22:52:45.194Z,101444.59
2022-09-01T22:54:48.964Z,101441.19
2022-09-01T22:56:52.948Z,101445.06
2022-09-01T22:59:02.823Z,101435.72
2022-09-01T23:01:10.602Z,101429.75
2022-09-01T23:03:15.077Z,101434.59
2022-09-01T23:05:20.722Z,101429.47
2022-09-01T23:07:24.253Z,101433.34
2022-09-01T23:09:29.570Z,101429.19
2022-09-01T23:11:33.450Z,101434.78
2022-09-01T23:13:38.221Z,101431.41
2022-09-01T23:15:42.838Z,101418.25
2022-09-01T23:17:46.396Z,101421.16
2022-09-01T23:19:49.973Z,101419.47
2022-09-01T23:21:54.171Z,101424.81
2022-09-01T23:23:59.057Z,101410.72
2022-09-01T23:26:04.860Z,101419.72
2022-09-01T23:28:10.279Z,101416.06
2022-09-01T23:30:15.738Z,101420.53
2022-09-01T23:32:19.379Z,101408.06
2022-09-01T23:34:23.135Z,101406.22
2022-09-01T23:36:28.758Z,101405.38
2022-09-01T23:38:32.292Z,101404.41
2022-09-01T23:40:36.102Z,101400.88
2022-09-01T23:42:42.767Z,101403.53
2022-09-01T23:44:46.443Z,101396.63
2022-09-01T23:46:50.043Z,101394.91
2022-09-01T23:48:54.732Z,101394.19
2022-09-01T23:51:00.718Z,101389.81
2022-09-01T23:53:04.664Z,101391.53
2022-09-01T23:55:09.245Z,101392.47
2022-09-01T23:57:13.037Z,101388.09
2022-09-01T23:59:27.289Z,101386.63
